Terminal Aerodrome Forecast
Issued by NWS

Home | Current Version | Previous Version | Text Only | Print | Product List | Glossary On
Versions: 1 2 3 4 5 6 7 8 9 10 11 12 13 14
629
FTAK31 PAJN 272321
TAFAWG
TAF
PAWG 272321Z 2800/2824 33005KT P6SM VCSH SCT035 BKN080
     FM280400 VRB03KT P6SM -SHRA BKN025 OVC040
     FM281600 VRB05KT P6SM VCSH SCT025 BKN050
     FM281800 33005KT P6SM -SHRA SCT025 OVC050
      AMD LTD TO CLD VIS AND WIND 2806/2812=

USA.gov is the U.S. government's official web portal to all federal, state and local government web resources and services.